Time;durP1;ratioP1;P1;durP2;ratioP2;P2;SDS_P1;SDS_P2;PMS_P1;PMS_P2;Temp;Humidity;BMP_temperature;BMP_pressure;BME280_temperature;BME280_humidity;BME280_pressure;Samples;Min_cycle;Max_cycle;Signal;HPM_P1;HPM_P2
2021/07/01 00:01:35;;;;;;;21.67;7.43;;;14.70;99.90;;;;;;5012166;28;20242;-80
2021/07/01 00:04:05;;;;;;;19.50;7.90;;;14.70;99.90;;;;;;5011613;28;20210;-83
2021/07/01 00:06:32;;;;;;;20.47;6.57;;;14.70;99.90;;;;;;5011708;28;20199;-82
2021/07/01 00:08:58;;;;;;;19.73;6.47;;;14.70;99.90;;;;;;5012512;28;20222;-81
2021/07/01 00:11:26;;;;;;;16.10;6.87;;;14.70;99.90;;;;;;5011417;28;20195;-84
2021/07/01 00:13:52;;;;;;;17.13;6.67;;;14.70;99.90;;;;;;5011505;28;20210;-81
2021/07/01 00:16:21;;;;;;;18.80;7.50;;;14.60;99.90;;;;;;5013111;28;20314;-82
2021/07/01 00:18:49;;;;;;;19.83;6.53;;;14.60;99.90;;;;;;5031871;28;20241;-82
2021/07/01 00:21:17;;;;;;;16.23;6.77;;;14.60;99.90;;;;;;5030433;28;20681;-83
2021/07/01 00:23:44;;;;;;;22.77;7.17;;;14.60;99.90;;;;;;5032437;28;20210;-83
2021/07/01 00:26:11;;;;;;;26.80;8.20;;;14.60;99.90;;;;;;5023221;28;20918;-83
2021/07/01 00:28:39;;;;;;;21.87;7.67;;;14.60;99.90;;;;;;5011486;28;20210;-82
2021/07/01 00:31:06;;;;;;;23.93;7.63;;;14.60;99.90;;;;;;5013406;28;20547;-82
2021/07/01 00:33:33;;;;;;;25.80;9.23;;;14.60;99.90;;;;;;5011801;28;20199;-84
2021/07/01 00:35:59;;;;;;;22.00;7.87;;;14.70;99.90;;;;;;5011037;28;20211;-83
2021/07/01 00:38:28;;;;;;;24.43;7.10;;;14.70;99.90;;;;;;5012129;28;20218;-80
2021/07/01 00:40:56;;;;;;;17.53;7.33;;;14.70;99.90;;;;;;5012204;28;20594;-86
2021/07/01 00:43:25;;;;;;;23.93;7.00;;;14.70;99.90;;;;;;5012967;28;20217;-81
2021/07/01 00:45:52;;;;;;;26.00;7.50;;;14.70;99.90;;;;;;5031499;28;20209;-80
2021/07/01 00:48:19;;;;;;;23.73;7.87;;;14.80;99.90;;;;;;5025139;28;20317;-81
2021/07/01 00:50:47;;;;;;;22.07;8.27;;;14.80;99.90;;;;;;5008123;28;20195;-80
2021/07/01 00:53:17;;;;;;;25.63;7.97;;;14.70;99.90;;;;;;5007030;28;20811;-79
2021/07/01 00:55:45;;;;;;;21.93;7.83;;;14.70;99.90;;;;;;5009320;28;20203;-84
2021/07/01 00:58:12;;;;;;;28.43;8.67;;;14.80;99.90;;;;;;5008953;28;20223;-80
2021/07/01 01:00:53;;;;;;;23.00;8.07;;;14.80;99.90;;;;;;5008832;28;20211;-83
2021/07/01 01:03:20;;;;;;;21.20;7.60;;;14.70;99.90;;;;;;5007611;28;20226;-80
2021/07/01 01:05:47;;;;;;;20.07;8.30;;;14.70;99.90;;;;;;5008483;28;20203;-82
2021/07/01 01:08:14;;;;;;;20.17;7.20;;;14.70;99.90;;;;;;5007167;28;20211;-81
2021/07/01 01:10:41;;;;;;;19.57;6.83;;;14.60;99.90;;;;;;5007219;28;20204;-80
2021/07/01 01:13:11;;;;;;;21.93;7.87;;;14.60;99.90;;;;;;5007878;28;20766;-79
2021/07/01 01:15:38;;;;;;;22.27;8.53;;;14.70;99.90;;;;;;5007052;28;20706;-81
2021/07/01 01:18:05;;;;;;;26.63;8.43;;;14.80;99.90;;;;;;5026137;28;20226;-80
2021/07/01 01:20:32;;;;;;;16.17;7.43;;;14.80;99.90;;;;;;5023632;28;20237;-81
2021/07/01 01:23:00;;;;;;;20.47;7.73;;;14.80;99.90;;;;;;5007541;28;20187;-83
2021/07/01 01:25:27;;;;;;;20.83;7.17;;;14.80;99.90;;;;;;5006981;28;20599;-85
2021/07/01 01:27:54;;;;;;;24.27;8.40;;;14.70;99.90;;;;;;5007768;28;20608;-83
2021/07/01 01:30:21;;;;;;;21.27;7.20;;;14.70;99.90;;;;;;5008133;28;20207;-81
2021/07/01 01:32:48;;;;;;;24.70;7.47;;;14.70;99.90;;;;;;5008573;28;20264;-82
2021/07/01 01:35:15;;;;;;;21.63;7.57;;;14.70;99.90;;;;;;5008072;28;20489;-81
2021/07/01 01:37:42;;;;;;;16.37;6.67;;;14.70;99.90;;;;;;5019806;28;20221;-81
2021/07/01 01:40:11;;;;;;;18.43;6.73;;;14.70;99.90;;;;;;5027333;28;20246;-79
2021/07/01 01:42:40;;;;;;;14.90;6.43;;;14.70;99.90;;;;;;5027746;28;20222;-81
2021/07/01 01:45:08;;;;;;;18.77;7.47;;;14.70;99.90;;;;;;5008695;28;20211;-82
2021/07/01 01:47:35;;;;;;;16.17;7.23;;;14.70;99.90;;;;;;5008410;28;20211;-80
2021/07/01 01:50:02;;;;;;;19.10;6.77;;;14.70;99.90;;;;;;5007760;28;20210;-81
2021/07/01 01:52:29;;;;;;;17.53;6.77;;;14.70;99.90;;;;;;5006527;28;20775;-83
2021/07/01 01:54:56;;;;;;;20.47;7.07;;;14.70;99.90;;;;;;5006715;28;20847;-79
2021/07/01 01:57:27;;;;;;;16.17;7.10;;;14.70;99.90;;;;;;5005417;28;20211;-80
2021/07/01 01:59:55;;;;;;;18.53;7.47;;;14.70;99.90;;;;;;5005800;28;20523;-81
2021/07/01 02:02:22;;;;;;;22.27;7.77;;;14.70;99.90;;;;;;5005884;28;20202;-81
2021/07/01 02:04:48;;;;;;;21.40;6.60;;;14.70;99.90;;;;;;5026003;28;20206;-79
2021/07/01 02:07:15;;;;;;;18.30;7.03;;;14.70;99.90;;;;;;5025082;28;20210;-77
2021/07/01 02:09:42;;;;;;;16.47;6.80;;;14.70;99.90;;;;;;5010354;28;20859;-85
2021/07/01 02:12:09;;;;;;;19.07;6.67;;;14.70;99.90;;;;;;5008761;28;20207;-83
2021/07/01 02:14:37;;;;;;;15.00;6.77;;;14.70;99.90;;;;;;5010372;28;20588;-84
2021/07/01 02:17:05;;;;;;;19.67;7.10;;;14.70;99.90;;;;;;5007644;28;20697;-80
2021/07/01 02:19:32;;;;;;;17.37;7.10;;;14.70;99.90;;;;;;5007062;28;20247;-83
2021/07/01 02:21:59;;;;;;;16.77;7.77;;;14.70;99.90;;;;;;5008035;28;20207;-80
2021/07/01 02:24:27;;;;;;;13.73;6.60;;;14.70;99.90;;;;;;5007907;28;20206;-86
2021/07/01 02:26:53;;;;;;;15.30;6.67;;;14.70;99.90;;;;;;5008959;28;20207;-79
2021/07/01 02:29:20;;;;;;;24.07;9.03;;;14.70;99.90;;;;;;5018036;28;20296;-78
2021/07/01 02:31:48;;;;;;;15.13;6.43;;;14.70;99.90;;;;;;5027953;28;20199;-80
2021/07/01 02:34:15;;;;;;;15.40;6.63;;;14.60;99.90;;;;;;5027365;28;20606;-80
2021/07/01 02:36:42;;;;;;;12.20;6.17;;;14.60;99.90;;;;;;5023253;28;20207;-84
2021/07/01 02:39:09;;;;;;;14.67;5.73;;;14.60;99.90;;;;;;5006325;28;20226;-80
2021/07/01 02:41:36;;;;;;;12.63;6.43;;;14.60;99.90;;;;;;5006654;28;20925;-81
2021/07/01 02:44:03;;;;;;;12.53;5.70;;;14.60;99.90;;;;;;5009318;28;20203;-79
2021/07/01 02:46:30;;;;;;;14.47;5.77;;;14.60;99.90;;;;;;5009862;28;20215;-80
2021/07/01 02:48:58;;;;;;;13.43;5.73;;;14.60;99.90;;;;;;5007445;28;20677;-84
2021/07/01 02:51:26;;;;;;;13.50;6.67;;;14.60;99.90;;;;;;5009421;28;20207;-83
2021/07/01 02:53:54;;;;;;;14.40;8.73;;;14.60;99.90;;;;;;5007938;28;20647;-82
2021/07/01 02:56:22;;;;;;;21.07;9.10;;;14.60;99.90;;;;;;5004579;28;20204;-80
2021/07/01 02:58:49;;;;;;;19.60;9.80;;;14.60;99.90;;;;;;5005222;28;20211;-84
2021/07/01 03:01:16;;;;;;;15.20;9.37;;;14.50;99.90;;;;;;5017367;28;20297;-83
2021/07/01 03:03:43;;;;;;;23.10;10.00;;;14.50;99.90;;;;;;5027852;28;20198;-81
2021/07/01 03:06:12;;;;;;;19.63;11.10;;;14.50;99.90;;;;;;5026496;28;20206;-83
2021/07/01 03:08:40;;;;;;;19.53;9.53;;;14.50;99.90;;;;;;5026253;28;20610;-82
2021/07/01 03:11:08;;;;;;;17.47;9.60;;;14.50;99.90;;;;;;5024457;28;20483;-83
2021/07/01 03:13:35;;;;;;;26.00;9.97;;;14.50;99.90;;;;;;5026111;28;20214;-82
2021/07/01 03:16:02;;;;;;;27.40;9.83;;;14.50;99.90;;;;;;5024529;28;20693;-81
2021/07/01 03:18:28;;;;;;;27.53;10.57;;;14.50;99.90;;;;;;5025184;28;20233;-81
2021/07/01 03:20:55;;;;;;;24.40;9.63;;;14.50;99.90;;;;;;5025380;28;20431;-79
2021/07/01 03:23:23;;;;;;;25.77;9.40;;;14.50;99.90;;;;;;5023786;28;20209;-79
2021/07/01 03:25:50;;;;;;;22.63;10.33;;;14.50;99.90;;;;;;5029365;28;20591;-84
2021/07/01 03:28:17;;;;;;;25.23;9.53;;;14.60;99.90;;;;;;5026024;28;20213;-82
2021/07/01 03:30:44;;;;;;;21.63;9.80;;;14.60;99.90;;;;;;5007329;28;20206;-85
2021/07/01 03:33:10;;;;;;;22.47;10.33;;;14.60;99.90;;;;;;5007607;28;20218;-84
2021/07/01 03:35:37;;;;;;;29.57;10.93;;;14.60;99.90;;;;;;5008263;28;20202;-83
2021/07/01 03:38:04;;;;;;;26.80;10.33;;;14.70;99.90;;;;;;5024388;28;20203;-84
2021/07/01 03:40:32;;;;;;;24.67;10.50;;;14.60;99.90;;;;;;5026874;28;20239;-80
2021/07/01 03:42:59;;;;;;;30.23;11.50;;;14.70;99.90;;;;;;5029207;28;20618;-83
2021/07/01 03:45:26;;;;;;;27.40;11.17;;;14.60;99.90;;;;;;5014206;28;20289;-83
2021/07/01 03:47:53;;;;;;;27.33;11.23;;;14.70;99.90;;;;;;5007468;28;20208;-85
2021/07/01 03:50:21;;;;;;;27.83;10.83;;;14.70;99.90;;;;;;5018584;28;20210;-84
2021/07/01 03:52:47;;;;;;;23.50;10.13;;;14.70;99.90;;;;;;5028365;28;20567;-84
2021/07/01 03:55:14;;;;;;;31.10;12.10;;;14.70;99.90;;;;;;5026836;28;20490;-86
2021/07/01 03:57:42;;;;;;;38.23;12.80;;;14.70;99.90;;;;;;5027207;28;20203;-84
2021/07/01 04:00:11;;;;;;;31.17;11.17;;;14.70;99.90;;;;;;5026163;28;20226;-80
2021/07/01 04:02:38;;;;;;;22.43;9.93;;;14.70;99.90;;;;;;5010404;28;20218;-85
2021/07/01 04:05:06;;;;;;;23.83;9.90;;;14.80;99.90;;;;;;5009636;28;20585;-85
2021/07/01 04:07:33;;;;;;;17.00;8.93;;;14.80;99.90;;;;;;5008949;28;20203;-83
2021/07/01 04:10:04;;;;;;;23.40;10.17;;;14.80;99.90;;;;;;5008053;28;20211;-80
2021/07/01 04:12:36;;;;;;;27.03;10.53;;;14.80;99.90;;;;;;5006585;28;20203;-84
2021/07/01 04:15:06;;;;;;;24.37;10.10;;;14.80;99.90;;;;;;5008300;28;20195;-79
2021/07/01 04:17:33;;;;;;;21.23;10.37;;;14.80;99.90;;;;;;5024571;28;20230;-84
2021/07/01 04:20:00;;;;;;;28.07;10.07;;;14.80;99.90;;;;;;5024459;28;20238;-81
2021/07/01 04:22:26;;;;;;;30.87;12.50;;;14.80;99.90;;;;;;5023601;28;20520;-83
2021/07/01 04:24:54;;;;;;;25.93;10.47;;;14.80;99.90;;;;;;5010362;28;20215;-79
2021/07/01 04:27:21;;;;;;;28.27;11.47;;;14.90;99.90;;;;;;5008355;28;20203;-82
2021/07/01 04:29:48;;;;;;;31.70;11.30;;;14.90;99.90;;;;;;5008546;28;20565;-80
2021/07/01 04:32:16;;;;;;;28.73;10.77;;;14.90;99.90;;;;;;5008277;28;20654;-80
2021/07/01 04:34:44;;;;;;;37.43;12.80;;;14.90;99.90;;;;;;5007746;28;20196;-81
2021/07/01 04:37:10;;;;;;;35.33;12.23;;;14.90;99.90;;;;;;5007705;28;20260;-80
2021/07/01 04:39:38;;;;;;;30.93;12.40;;;14.90;99.90;;;;;;5008193;28;20210;-83
2021/07/01 04:42:06;;;;;;;26.13;10.37;;;14.90;99.90;;;;;;5028295;28;20199;-83
2021/07/01 04:44:33;;;;;;;27.37;11.27;;;14.90;99.90;;;;;;5031982;28;20203;-80
2021/07/01 04:47:00;;;;;;;31.60;11.93;;;15.00;99.90;;;;;;5030935;28;20203;-87
2021/07/01 04:49:30;;;;;;;30.70;10.40;;;14.90;99.90;;;;;;5012063;28;20512;-82
2021/07/01 04:51:57;;;;;;;31.33;10.83;;;14.90;99.90;;;;;;5011129;28;20207;-86
2021/07/01 04:54:23;;;;;;;32.83;10.30;;;15.00;99.90;;;;;;5012670;28;20207;-79
2021/07/01 04:56:50;;;;;;;30.13;10.93;;;15.00;99.90;;;;;;5010734;28;20207;-86
2021/07/01 04:59:19;;;;;;;28.10;9.77;;;15.00;99.90;;;;;;5011717;28;20203;-83
2021/07/01 05:01:46;;;;;;;36.97;10.83;;;15.10;99.90;;;;;;5011993;28;20233;-85
2021/07/01 05:04:15;;;;;;;29.57;11.10;;;15.10;99.90;;;;;;5010634;28;20207;-80
2021/07/01 05:06:43;;;;;;;28.60;10.87;;;15.10;99.90;;;;;;5012403;28;20191;-86
2021/07/01 05:09:11;;;;;;;35.23;10.43;;;15.10;99.90;;;;;;5010445;28;20210;-81
2021/07/01 05:11:38;;;;;;;35.20;11.50;;;15.10;99.90;;;;;;5011364;28;20200;-86
2021/07/01 05:14:05;;;;;;;32.23;10.67;;;15.10;99.90;;;;;;5028003;28;20245;-85
2021/07/01 05:16:36;;;;;;;31.20;11.80;;;15.10;99.90;;;;;;5030017;28;20202;-86
2021/07/01 05:19:03;;;;;;;37.83;10.97;;;15.20;99.90;;;;;;5017307;28;20247;-86
2021/07/01 05:21:30;;;;;;;30.07;10.47;;;15.20;99.90;;;;;;5012119;28;20223;-83
2021/07/01 05:23:58;;;;;;;30.27;12.00;;;15.20;99.90;;;;;;5011643;28;20873;-85
2021/07/01 05:26:25;;;;;;;30.83;11.53;;;15.30;99.90;;;;;;5011700;28;20299;-86
2021/07/01 05:28:52;;;;;;;46.57;11.93;;;15.30;99.90;;;;;;5012211;28;20211;-83
2021/07/01 05:31:19;;;;;;;34.57;11.73;;;15.40;99.90;;;;;;5010523;28;20203;-82
2021/07/01 05:33:48;;;;;;;37.53;12.00;;;15.40;99.90;;;;;;5011892;28;20215;-87
2021/07/01 05:36:14;;;;;;;31.10;12.07;;;15.40;99.90;;;;;;5012222;28;20484;-89
2021/07/01 05:38:41;;;;;;;45.73;13.53;;;15.40;99.90;;;;;;5011550;28;20206;-85
2021/07/01 05:41:09;;;;;;;33.80;10.47;;;15.50;99.90;;;;;;5010109;28;20223;-81
2021/07/01 05:43:36;;;;;;;26.77;11.10;;;15.60;99.90;;;;;;5010359;28;20219;-86
2021/07/01 05:46:04;;;;;;;33.00;10.87;;;15.60;99.90;;;;;;5011648;28;20223;-87
2021/07/01 05:48:31;;;;;;;34.80;11.97;;;15.60;99.90;;;;;;5011388;28;20219;-87
2021/07/01 05:51:02;;;;;;;29.80;11.77;;;15.60;99.90;;;;;;5013992;28;20205;-81
2021/07/01 05:53:32;;;;;;;33.73;12.60;;;15.60;99.90;;;;;;5031143;28;20221;-83
2021/07/01 05:56:00;;;;;;;33.23;10.37;;;15.70;99.90;;;;;;5033054;28;20564;-88
2021/07/01 05:58:28;;;;;;;29.30;10.77;;;15.70;99.90;;;;;;5031517;28;20242;-86
2021/07/01 06:00:55;;;;;;;35.00;11.17;;;15.70;99.90;;;;;;5013694;28;20318;-88
2021/07/01 06:03:22;;;;;;;32.07;11.13;;;15.70;99.90;;;;;;5014114;28;20210;-87
2021/07/01 06:05:58;;;;;;;31.93;10.20;;;15.70;99.90;;;;;;5012700;28;20199;-87
2021/07/01 06:08:29;;;;;;;38.40;10.63;;;15.70;99.90;;;;;;5011194;28;20224;-88
2021/07/01 06:11:01;;;;;;;25.70;10.77;;;15.80;99.90;;;;;;5011439;28;20211;-89
2021/07/01 06:13:31;;;;;;;33.40;11.70;;;15.80;99.90;;;;;;5011087;28;20207;-87
2021/07/01 06:15:58;;;;;;;30.43;9.70;;;15.80;99.90;;;;;;5009578;28;20214;-88
2021/07/01 06:18:25;;;;;;;31.97;11.43;;;15.90;99.90;;;;;;5029801;28;20199;-86
2021/07/01 06:20:52;;;;;;;29.07;9.90;;;15.90;99.90;;;;;;5029626;28;20234;-88
2021/07/01 06:23:21;;;;;;;32.50;10.50;;;16.00;99.90;;;;;;5011169;28;20203;-87
2021/07/01 06:25:49;;;;;;;31.27;9.60;;;16.00;99.90;;;;;;5010473;28;20207;-88
2021/07/01 06:28:17;;;;;;;30.53;10.30;;;16.10;99.90;;;;;;5010232;28;20206;-85
2021/07/01 06:30:46;;;;;;;31.53;9.53;;;16.10;99.90;;;;;;5010094;28;20203;-86
2021/07/01 06:33:14;;;;;;;32.73;10.27;;;16.20;99.90;;;;;;5029724;28;20194;-86
2021/07/01 06:35:49;;;;;;;26.60;9.27;;;16.30;99.90;;;;;;5029856;28;20596;-86
2021/07/01 06:38:19;;;;;;;31.43;9.93;;;16.40;99.90;;;;;;5012454;28;20298;-86
2021/07/01 06:40:47;;;;;;;31.23;9.97;;;16.40;99.90;;;;;;5005882;28;20283;-88
2021/07/01 06:43:15;;;;;;;31.30;10.77;;;16.60;99.90;;;;;;5008781;28;20210;-89
2021/07/01 06:45:43;;;;;;;20.37;8.90;;;16.60;99.90;;;;;;5017521;28;20256;-88
2021/07/01 06:48:12;;;;;;;20.77;8.47;;;16.70;99.90;;;;;;5013242;28;20195;-85
2021/07/01 06:50:40;;;;;;;19.53;7.60;;;16.70;99.90;;;;;;5016356;28;20195;-81
2021/07/01 06:53:07;;;;;;;21.13;7.70;;;16.70;99.90;;;;;;5012466;28;20203;-88
2021/07/01 06:55:35;;;;;;;27.73;9.70;;;16.60;99.90;;;;;;5005378;28;20922;-85
2021/07/01 06:58:01;;;;;;;21.27;7.40;;;16.60;99.90;;;;;;5005263;28;20211;-88
2021/07/01 07:01:05;;;;;;;22.03;8.53;;;16.50;99.90;;;;;;5001585;28;20229;-82
2021/07/01 07:03:34;;;;;;;18.95;8.30;;;16.50;99.90;;;;;;5007312;28;20207;-86
2021/07/01 07:06:02;;;;;;;21.03;8.50;;;16.50;99.90;;;;;;5025776;28;20207;-87
2021/07/01 07:08:30;;;;;;;19.58;7.88;;;16.60;99.90;;;;;;5025648;28;20210;-87
2021/07/01 07:10:57;;;;;;;22.77;7.77;;;16.60;99.90;;;;;;5013378;28;20300;-86
2021/07/01 07:13:25;;;;;;;24.85;8.32;;;16.60;99.90;;;;;;5013246;28;20234;-86
2021/07/01 07:15:53;;;;;;;19.83;7.03;;;16.70;99.90;;;;;;5019117;28;20921;-85
2021/07/01 07:21:11;;;;;;;19.10;7.63;;;16.90;99.90;;;;;;5512265;22;20232;-81
2021/07/01 07:23:38;;;;;;;20.03;7.70;;;17.00;99.90;;;;;;5066675;28;20216;-79
2021/07/01 07:26:08;;;;;;;19.00;6.70;;;17.10;99.90;;;;;;5081899;28;20208;-82
2021/07/01 07:28:37;;;;;;;27.48;7.00;;;17.10;99.90;;;;;;5085460;28;20226;-77
2021/07/01 07:31:05;;;;;;;19.00;6.23;;;17.30;99.90;;;;;;5085757;28;20203;-82
2021/07/01 07:33:33;;;;;;;21.00;8.38;;;17.50;99.90;;;;;;5078208;28;20305;-87
2021/07/01 07:36:01;;;;;;;20.52;7.22;;;17.70;99.90;;;;;;5066383;28;20194;-85
2021/07/01 07:38:30;;;;;;;23.83;6.72;;;17.80;99.90;;;;;;5081969;28;20319;-89
2021/07/01 07:40:57;;;;;;;22.92;8.10;;;18.10;99.90;;;;;;5085387;28;20256;-89
2021/07/01 07:43:27;;;;;;;18.80;6.95;;;18.20;99.90;;;;;;5085512;28;20204;-85
2021/07/01 07:45:56;;;;;;;22.98;7.15;;;18.40;99.90;;;;;;5078865;28;20606;-82
2021/07/01 07:48:23;;;;;;;24.40;7.68;;;18.50;99.90;;;;;;5069770;28;20197;-86
2021/07/01 07:50:52;;;;;;;25.50;8.00;;;18.60;99.90;;;;;;5091598;28;20270;-85
2021/07/01 07:53:25;;;;;;;23.40;7.75;;;18.60;99.90;;;;;;5092389;28;20193;-81
2021/07/01 07:56:01;;;;;;;30.90;9.00;;;18.60;99.90;;;;;;5092728;28;20227;-88
2021/07/01 07:58:30;;;;;;;24.20;7.82;;;18.60;99.90;;;;;;5072193;28;20201;-86
2021/07/01 08:01:00;;;;;;;29.17;8.48;;;18.50;99.90;;;;;;5074610;28;20270;-84
2021/07/01 08:03:31;;;;;;;26.77;8.32;;;18.40;99.90;;;;;;5071533;28;20223;-83
2021/07/01 08:06:00;;;;;;;29.75;8.43;;;18.20;99.90;;;;;;5071865;28;20221;-82
2021/07/01 08:08:30;;;;;;;25.95;8.75;;;18.10;99.90;;;;;;5071357;28;20582;-84
2021/07/01 08:11:00;;;;;;;30.55;9.23;;;18.00;99.90;;;;;;5072030;28;20201;-79
2021/07/01 08:13:28;;;;;;;27.88;8.23;;;18.00;99.90;;;;;;5068961;28;20925;-91
2021/07/01 08:15:55;;;;;;;27.92;8.93;;;18.00;99.90;;;;;;5087546;28;20293;-90
2021/07/01 08:18:30;;;;;;;31.13;9.65;;;18.10;99.90;;;;;;5090597;28;20235;-89
2021/07/01 08:20:57;;;;;;;31.15;9.02;;;18.10;99.90;;;;;;5073339;28;20239;-86
2021/07/01 08:23:24;;;;;;;32.90;9.50;;;18.20;99.90;;;;;;5076152;28;20201;-93
2021/07/01 08:25:52;;;;;;;28.67;8.80;;;18.30;99.90;;;;;;5070620;28;20197;-86
2021/07/01 08:28:22;;;;;;;29.67;8.32;;;18.30;99.90;;;;;;5069635;28;20194;-86
2021/07/01 08:30:49;;;;;;;31.63;8.55;;;18.40;99.90;;;;;;5057329;28;20776;-88
2021/07/01 08:33:21;;;;;;;29.55;9.68;;;18.40;99.90;;;;;;5051844;28;20213;-83
2021/07/01 08:35:52;;;;;;;33.65;9.20;;;18.50;99.90;;;;;;5053528;28;22859;-86
2021/07/01 08:38:18;;;;;;;30.20;8.50;;;18.70;99.90;;;;;;5071308;28;20197;-80
2021/07/01 08:40:46;;;;;;;24.95;8.48;;;18.80;99.90;;;;;;5057644;28;20209;-84
2021/07/01 08:43:17;;;;;;;30.42;8.55;;;18.80;99.90;;;;;;5049346;28;20252;-82
2021/07/01 08:45:57;;;;;;;30.30;9.20;;;19.00;99.90;;;;;;5049520;28;20259;-83
2021/07/01 08:48:26;;;;;;;33.05;8.80;;;19.30;99.90;;;;;;5048729;28;20267;-83
2021/07/01 08:50:55;;;;;;;27.48;8.43;;;19.70;99.90;;;;;;5049646;28;20256;-81
2021/07/01 08:53:45;;;;;;;22.17;7.60;;;19.90;99.90;;;;;;5048816;28;20385;-79
2021/07/01 08:56:18;;;;;;;25.92;9.02;;;20.00;99.90;;;;;;5049875;28;20598;-80
2021/07/01 08:58:48;;;;;;;24.08;8.02;;;20.60;99.90;;;;;;5049813;28;20602;-82
2021/07/01 09:01:19;;;;;;;31.23;7.93;;;20.60;99.90;;;;;;5049813;28;20221;-81
2021/07/01 09:03:49;;;;;;;22.02;7.40;;;20.60;99.90;;;;;;5051336;28;20198;-83
2021/07/01 09:06:23;;;;;;;26.73;7.53;;;20.40;99.90;;;;;;5050852;28;20200;-84
2021/07/01 09:08:52;;;;;;;26.83;7.25;;;20.30;99.90;;;;;;5048824;28;20247;-80
2021/07/01 09:11:21;;;;;;;20.50;7.97;;;20.10;99.90;;;;;;5048421;28;20205;-83
2021/07/01 09:13:50;;;;;;;21.52;8.73;;;20.10;99.90;;;;;;5050576;28;20212;-87
2021/07/01 09:16:19;;;;;;;26.90;8.23;;;20.20;99.90;;;;;;5049049;28;20540;-82
2021/07/01 09:18:46;;;;;;;27.02;7.40;;;20.40;99.90;;;;;;5048597;28;20234;-79
2021/07/01 09:21:14;;;;;;;27.52;8.52;;;20.60;99.90;;;;;;5047893;28;20849;-86
2021/07/01 09:23:45;;;;;;;23.45;7.40;;;20.70;99.90;;;;;;5051270;28;20282;-92
2021/07/01 09:26:20;;;;;;;23.65;7.38;;;20.90;99.90;;;;;;5048977;28;20708;-82
2021/07/01 09:28:48;;;;;;;22.25;7.32;;;21.20;99.90;;;;;;5050029;28;20262;-88
2021/07/01 09:31:19;;;;;;;21.75;7.30;;;21.40;99.90;;;;;;5050308;28;20221;-81
2021/07/01 09:33:48;;;;;;;27.23;7.47;;;21.70;99.90;;;;;;5062214;28;20213;-84
2021/07/01 09:36:16;;;;;;;24.45;8.10;;;21.80;99.90;;;;;;5070740;28;20205;-88
2021/07/01 09:38:44;;;;;;;28.02;8.45;;;21.90;99.90;;;;;;5066744;28;20202;-84
2021/07/01 09:41:12;;;;;;;20.27;7.28;;;21.60;99.90;;;;;;5047252;28;20202;-78
2021/07/01 09:43:40;;;;;;;24.63;7.13;;;21.40;99.90;;;;;;5046063;28;20214;-91
2021/07/01 09:46:12;;;;;;;23.77;7.95;;;21.20;99.90;;;;;;5053255;28;20209;-80
2021/07/01 09:48:45;;;;;;;26.00;7.82;;;21.20;99.90;;;;;;5073212;28;20270;-83
2021/07/01 09:51:12;;;;;;;16.85;6.65;;;21.10;99.90;;;;;;5075078;28;20224;-85
2021/07/01 09:53:39;;;;;;;24.92;7.03;;;21.10;99.90;;;;;;5070614;28;20201;-81
2021/07/01 09:56:08;;;;;;;23.20;7.45;;;21.00;99.90;;;;;;5072983;28;20216;-86
2021/07/01 09:58:39;;;;;;;25.65;7.95;;;20.90;99.90;;;;;;5071171;28;20658;-93
2021/07/01 10:01:06;;;;;;;21.73;7.35;;;20.90;99.90;;;;;;5069077;28;20212;-85
2021/07/01 10:03:56;;;;;;;22.38;6.93;;;20.80;99.90;;;;;;5066297;28;20588;-82
2021/07/01 10:06:23;;;;;;;21.58;6.85;;;20.60;99.90;;;;;;5044953;28;20301;-84
2021/07/01 10:08:50;;;;;;;18.20;7.43;;;20.50;99.90;;;;;;5047180;28;20318;-87
2021/07/01 10:11:34;;;;;;;23.48;7.35;;;20.40;99.90;;;;;;5061873;28;20866;-87
2021/07/01 10:14:03;;;;;;;24.67;8.30;;;20.40;99.90;;;;;;5065355;28;20197;-88
2021/07/01 10:16:31;;;;;;;26.08;8.65;;;20.20;99.90;;;;;;5065865;28;20208;-83
2021/07/01 10:18:59;;;;;;;27.98;8.68;;;20.20;99.90;;;;;;5064046;28;20232;-78
2021/07/01 10:21:29;;;;;;;23.80;8.27;;;20.30;99.90;;;;;;5060398;28;20253;-88
2021/07/01 10:24:13;;;;;;;21.88;7.30;;;20.10;99.90;;;;;;5047275;28;20202;-92
2021/07/01 10:26:45;;;;;;;27.10;8.02;;;20.10;99.90;;;;;;5047323;28;20193;-83
2021/07/01 10:29:13;;;;;;;21.92;8.32;;;20.10;99.90;;;;;;5048843;28;20327;-83
2021/07/01 10:31:55;;;;;;;25.67;8.65;;;20.00;99.90;;;;;;5057301;28;20489;-86
2021/07/01 10:34:25;;;;;;;23.65;8.30;;;19.90;99.90;;;;;;5068931;28;20208;-83
2021/07/01 10:37:24;;;;;;;25.83;8.20;;;19.90;99.90;;;;;;5067957;28;20231;-83
2021/07/01 10:39:53;;;;;;;24.70;7.85;;;20.00;99.90;;;;;;4988831;28;20223;-80
2021/07/01 10:42:21;;;;;;;26.17;8.77;;;20.00;99.90;;;;;;5052029;28;20314;-83
2021/07/01 10:44:48;;;;;;;28.77;10.25;;;20.00;99.90;;;;;;5069194;28;20389;-87
2021/07/01 10:47:26;;;;;;;18.75;8.93;;;19.90;99.90;;;;;;5053213;28;20221;-92
2021/07/01 10:49:54;;;;;;;25.27;10.13;;;19.80;99.90;;;;;;5048128;28;20197;-86
2021/07/01 10:52:33;;;;;;;24.95;8.70;;;19.80;99.90;;;;;;5047730;28;20196;-84
2021/07/01 10:55:00;;;;;;;23.98;8.57;;;19.70;99.90;;;;;;5047854;28;20213;-81
2021/07/01 10:57:30;;;;;;;25.83;8.70;;;19.70;99.90;;;;;;5046454;28;20203;-86
2021/07/01 10:59:58;;;;;;;26.73;9.88;;;19.70;99.90;;;;;;5043698;28;20231;-77
2021/07/01 11:02:26;;;;;;;24.77;8.25;;;19.50;99.90;;;;;;5043137;28;20230;-80
2021/07/01 11:04:56;;;;;;;27.67;8.38;;;19.50;99.90;;;;;;5053855;28;20232;-81
2021/07/01 11:07:24;;;;;;;25.25;8.43;;;19.40;99.90;;;;;;5049281;28;20190;-88
2021/07/01 11:09:55;;;;;;;28.10;10.25;;;19.40;99.90;;;;;;5060553;28;20209;-89
2021/07/01 11:12:23;;;;;;;29.65;10.10;;;19.30;99.90;;;;;;5065407;28;20284;-83
2021/07/01 11:14:54;;;;;;;31.05;10.07;;;19.30;99.90;;;;;;5058644;28;20206;-80
2021/07/01 11:17:30;;;;;;;30.05;9.38;;;19.30;99.90;;;;;;5049333;28;20251;-80
2021/07/01 11:20:13;;;;;;;29.10;9.95;;;19.30;99.90;;;;;;5068125;28;20243;-80
2021/07/01 11:22:52;;;;;;;30.58;9.65;;;19.40;99.90;;;;;;5065925;28;20240;-88
2021/07/01 11:25:27;;;;;;;33.80;10.15;;;19.30;99.90;;;;;;5064451;28;20189;-80
2021/07/01 11:28:13;;;;;;;28.13;9.60;;;19.30;99.90;;;;;;5065181;28;20204;-84
2021/07/01 11:30:49;;;;;;;27.15;8.68;;;19.30;99.90;;;;;;5049250;28;20202;-82
2021/07/01 11:33:18;;;;;;;30.15;8.85;;;19.30;99.90;;;;;;5043980;28;20919;-85
2021/07/01 11:35:47;;;;;;;26.52;9.15;;;19.40;99.90;;;;;;5057829;28;20516;-82
2021/07/01 11:38:28;;;;;;;25.58;9.18;;;19.40;99.90;;;;;;5064097;28;20216;-82
2021/07/01 11:40:56;;;;;;;35.50;8.95;;;19.40;99.90;;;;;;5062432;28;20217;-78
2021/07/01 11:43:24;;;;;;;23.67;8.82;;;19.40;99.90;;;;;;5064667;28;20221;-80
2021/07/01 11:45:52;;;;;;;27.67;8.95;;;19.30;99.90;;;;;;5064620;28;20232;-81
2021/07/01 11:48:21;;;;;;;27.08;8.98;;;19.30;99.90;;;;;;5064038;28;20193;-79
2021/07/01 11:50:51;;;;;;;29.48;9.40;;;19.30;99.90;;;;;;5056572;28;20241;-78
2021/07/01 11:53:19;;;;;;;35.45;9.75;;;19.30;99.90;;;;;;5044297;28;20198;-80
2021/07/01 11:55:47;;;;;;;25.20;9.68;;;19.30;99.90;;;;;;5044000;28;20205;-80
2021/07/01 11:58:15;;;;;;;36.08;10.68;;;19.30;99.90;;;;;;5064490;28;20205;-82
2021/07/01 12:00:43;;;;;;;30.48;8.40;;;19.30;99.90;;;;;;5063930;28;20229;-79
2021/07/01 12:03:10;;;;;;;29.35;9.43;;;19.40;99.90;;;;;;5063947;28;20225;-82
2021/07/01 12:05:42;;;;;;;35.17;9.43;;;19.40;99.90;;;;;;5061723;28;20205;-80
2021/07/01 12:08:11;;;;;;;26.90;8.52;;;19.20;99.90;;;;;;5063832;28;20197;-80
2021/07/01 12:10:38;;;;;;;25.92;8.35;;;19.30;99.90;;;;;;5062296;28;20205;-80
2021/07/01 12:13:40;;;;;;;26.08;9.07;;;19.30;99.90;;;;;;5055371;28;20228;-82
2021/07/01 12:16:08;;;;;;;28.17;9.48;;;19.30;99.90;;;;;;5061925;28;20871;-82
2021/07/01 12:18:55;;;;;;;31.10;10.15;;;19.20;99.90;;;;;;5061128;28;20225;-81
2021/07/01 12:21:25;;;;;;;30.17;8.82;;;19.30;99.90;;;;;;5063493;28;20229;-81
2021/07/01 12:23:55;;;;;;;25.88;8.45;;;19.30;99.90;;;;;;5077920;28;20653;-83
2021/07/01 12:26:40;;;;;;;27.40;8.98;;;19.40;99.90;;;;;;5045252;28;20210;-87
2021/07/01 12:29:12;;;;;;;24.92;8.35;;;19.40;99.90;;;;;;5046356;28;20309;-83
2021/07/01 12:31:40;;;;;;;28.27;9.55;;;19.50;99.90;;;;;;5063353;28;20255;-76
2021/07/01 12:34:08;;;;;;;26.33;8.57;;;19.50;99.90;;;;;;5053558;28;20209;-81
2021/07/01 12:36:40;;;;;;;28.38;9.15;;;19.40;99.90;;;;;;5043423;28;20856;-79
2021/07/01 12:39:20;;;;;;;26.98;8.70;;;19.20;99.90;;;;;;5023085;28;20207;-80
2021/07/01 12:41:49;;;;;;;26.45;8.07;;;19.20;99.90;;;;;;5023127;28;20202;-85
2021/07/01 12:44:18;;;;;;;29.13;9.82;;;19.20;99.90;;;;;;5062823;28;20540;-76
2021/07/01 12:47:11;;;;;;;23.23;8.57;;;19.20;99.90;;;;;;5067495;28;20211;-80